sensor_id;sensor_type;location;lat;lon;timestamp;pressure;altitude;pressure_sealevel;temperature;humidity
77881;BME280;67077;50.298;18.996;2023-03-30T00:01:14;98001.00;;;4.42;60.25
77881;BME280;67077;50.298;18.996;2023-03-30T00:03:44;97998.54;;;4.41;60.43
77881;BME280;67077;50.298;18.996;2023-03-30T00:06:14;98002.42;;;4.40;60.73
77881;BME280;67077;50.298;18.996;2023-03-30T00:08:50;97995.70;;;4.40;60.98
77881;BME280;67077;50.298;18.996;2023-03-30T00:11:25;97995.52;;;4.38;61.00
77881;BME280;67077;50.298;18.996;2023-03-30T00:13:53;97996.04;;;4.37;61.22
77881;BME280;67077;50.298;18.996;2023-03-30T00:16:21;97989.91;;;4.35;61.38
77881;BME280;67077;50.298;18.996;2023-03-30T00:18:53;97989.44;;;4.33;61.43
77881;BME280;67077;50.298;18.996;2023-03-30T00:21:28;97988.00;;;4.30;61.68
77881;BME280;67077;50.298;18.996;2023-03-30T00:23:56;97983.27;;;4.28;61.60
77881;BME280;67077;50.298;18.996;2023-03-30T00:26:24;97980.88;;;4.24;61.86
77881;BME280;67077;50.298;18.996;2023-03-30T00:28:53;97976.21;;;4.19;62.01
77881;BME280;67077;50.298;18.996;2023-03-30T00:31:21;97975.98;;;4.17;62.16
77881;BME280;67077;50.298;18.996;2023-03-30T00:33:49;97981.20;;;4.16;62.33
77881;BME280;67077;50.298;18.996;2023-03-30T00:36:18;97976.88;;;4.20;62.45
77881;BME280;67077;50.298;18.996;2023-03-30T00:38:46;97975.56;;;4.24;62.37
77881;BME280;67077;50.298;18.996;2023-03-30T00:41:15;97974.05;;;4.24;62.44
77881;BME280;67077;50.298;18.996;2023-03-30T00:44:04;97974.33;;;4.23;62.57
77881;BME280;67077;50.298;18.996;2023-03-30T00:46:32;97977.25;;;4.23;62.64
77881;BME280;67077;50.298;18.996;2023-03-30T00:49:05;97975.25;;;4.22;62.60
77881;BME280;67077;50.298;18.996;2023-03-30T00:51:39;97973.89;;;4.21;62.79
77881;BME280;67077;50.298;18.996;2023-03-30T00:54:12;97973.46;;;4.20;62.83
77881;BME280;67077;50.298;18.996;2023-03-30T00:56:43;97973.73;;;4.19;62.98
77881;BME280;67077;50.298;18.996;2023-03-30T00:59:12;97973.08;;;4.18;62.96
77881;BME280;67077;50.298;18.996;2023-03-30T01:01:40;97972.75;;;4.18;62.95
77881;BME280;67077;50.298;18.996;2023-03-30T01:04:09;97970.63;;;4.18;63.09
77881;BME280;67077;50.298;18.996;2023-03-30T01:06:38;97969.20;;;4.18;63.11
77881;BME280;67077;50.298;18.996;2023-03-30T01:09:07;97964.73;;;4.20;63.10
77881;BME280;67077;50.298;18.996;2023-03-30T01:11:35;97962.11;;;4.21;63.12
77881;BME280;67077;50.298;18.996;2023-03-30T01:14:06;97955.67;;;4.23;63.18
77881;BME280;67077;50.298;18.996;2023-03-30T01:42:19;97912.98;;;4.42;62.71
77881;BME280;67077;50.298;18.996;2023-03-30T01:45:58;97919.34;;;4.43;62.65
77881;BME280;67077;50.298;18.996;2023-03-30T01:50:28;97915.30;;;4.42;62.43
77881;BME280;67077;50.298;18.996;2023-03-30T01:55:50;97919.21;;;4.42;62.48
77881;BME280;67077;50.298;18.996;2023-03-30T01:58:27;97920.08;;;4.47;62.36
77881;BME280;67077;50.298;18.996;2023-03-30T02:01:00;97922.13;;;4.54;62.30
77881;BME280;67077;50.298;18.996;2023-03-30T02:03:30;97918.39;;;4.58;62.06
77881;BME280;67077;50.298;18.996;2023-03-30T02:06:04;97921.05;;;4.60;61.82
77881;BME280;67077;50.298;18.996;2023-03-30T02:08:37;97922.29;;;4.61;61.79
77881;BME280;67077;50.298;18.996;2023-03-30T02:11:06;97918.50;;;4.62;61.77
77881;BME280;67077;50.298;18.996;2023-03-30T02:13:35;97919.20;;;4.62;61.59
77881;BME280;67077;50.298;18.996;2023-03-30T02:16:11;97916.45;;;4.62;61.50
77881;BME280;67077;50.298;18.996;2023-03-30T02:18:41;97916.63;;;4.62;61.58
77881;BME280;67077;50.298;18.996;2023-03-30T02:21:10;97915.22;;;4.62;61.58
77881;BME280;67077;50.298;18.996;2023-03-30T02:23:42;97915.05;;;4.62;61.49
77881;BME280;67077;50.298;18.996;2023-03-30T02:26:12;97912.91;;;4.62;61.42
77881;BME280;67077;50.298;18.996;2023-03-30T02:28:40;97910.70;;;4.63;61.37
77881;BME280;67077;50.298;18.996;2023-03-30T02:31:11;97914.00;;;4.63;61.33
77881;BME280;67077;50.298;18.996;2023-03-30T02:36:27;97911.58;;;4.64;61.31
77881;BME280;67077;50.298;18.996;2023-03-30T02:50:39;97905.27;;;4.68;61.24
77881;BME280;67077;50.298;18.996;2023-03-30T02:59:03;97889.57;;;4.70;61.26
77881;BME280;67077;50.298;18.996;2023-03-30T03:01:39;97880.92;;;4.71;61.27
77881;BME280;67077;50.298;18.996;2023-03-30T03:04:10;97876.11;;;4.71;61.30
77881;BME280;67077;50.298;18.996;2023-03-30T03:06:42;97873.05;;;4.71;61.22
77881;BME280;67077;50.298;18.996;2023-03-30T03:09:10;97868.23;;;4.71;61.35
77881;BME280;67077;50.298;18.996;2023-03-30T03:11:38;97865.93;;;4.71;61.23
77881;BME280;67077;50.298;18.996;2023-03-30T03:14:06;97863.06;;;4.71;61.15
77881;BME280;67077;50.298;18.996;2023-03-30T03:16:34;97863.58;;;4.71;61.27
77881;BME280;67077;50.298;18.996;2023-03-30T03:19:03;97850.90;;;4.71;61.22
77881;BME280;67077;50.298;18.996;2023-03-30T03:21:31;97846.33;;;4.71;61.31
77881;BME280;67077;50.298;18.996;2023-03-30T03:23:59;97836.84;;;4.69;61.30
77881;BME280;67077;50.298;18.996;2023-03-30T03:26:28;97836.83;;;4.68;61.29
77881;BME280;67077;50.298;18.996;2023-03-30T03:28:56;97836.77;;;4.67;61.43
77881;BME280;67077;50.298;18.996;2023-03-30T03:31:24;97839.11;;;4.66;61.39
77881;BME280;67077;50.298;18.996;2023-03-30T03:33:53;97838.02;;;4.65;61.35
77881;BME280;67077;50.298;18.996;2023-03-30T03:36:22;97839.59;;;4.65;61.42
77881;BME280;67077;50.298;18.996;2023-03-30T03:38:50;97836.98;;;4.64;61.48
77881;BME280;67077;50.298;18.996;2023-03-30T03:41:19;97838.67;;;4.64;61.24
77881;BME280;67077;50.298;18.996;2023-03-30T03:43:47;97836.73;;;4.63;61.13
77881;BME280;67077;50.298;18.996;2023-03-30T03:46:15;97836.26;;;4.64;61.12
77881;BME280;67077;50.298;18.996;2023-03-30T03:48:43;97839.23;;;4.65;60.88
77881;BME280;67077;50.298;18.996;2023-03-30T03:51:11;97842.15;;;4.66;60.91
77881;BME280;67077;50.298;18.996;2023-03-30T03:53:39;97843.15;;;4.66;60.97
77881;BME280;67077;50.298;18.996;2023-03-30T03:56:07;97838.98;;;4.67;60.81
77881;BME280;67077;50.298;18.996;2023-03-30T03:58:35;97832.73;;;4.67;60.85
77881;BME280;67077;50.298;18.996;2023-03-30T04:01:03;97829.69;;;4.67;60.91
77881;BME280;67077;50.298;18.996;2023-03-30T04:03:31;97825.69;;;4.66;61.02
77881;BME280;67077;50.298;18.996;2023-03-30T04:06:00;97823.34;;;4.66;60.88
77881;BME280;67077;50.298;18.996;2023-03-30T04:08:29;97821.16;;;4.66;61.04
77881;BME280;67077;50.298;18.996;2023-03-30T04:11:08;97821.08;;;4.67;61.06
77881;BME280;67077;50.298;18.996;2023-03-30T04:13:38;97816.39;;;4.67;61.07
77881;BME280;67077;50.298;18.996;2023-03-30T04:16:07;97813.17;;;4.67;61.16
77881;BME280;67077;50.298;18.996;2023-03-30T04:18:35;97810.63;;;4.68;61.17
77881;BME280;67077;50.298;18.996;2023-03-30T04:21:05;97814.17;;;4.68;61.15
77881;BME280;67077;50.298;18.996;2023-03-30T04:23:34;97814.13;;;4.68;61.30
77881;BME280;67077;50.298;18.996;2023-03-30T04:26:03;97807.30;;;4.69;61.25
77881;BME280;67077;50.298;18.996;2023-03-30T04:28:32;97801.75;;;4.70;61.47
77881;BME280;67077;50.298;18.996;2023-03-30T04:31:05;97803.08;;;4.71;61.43
77881;BME280;67077;50.298;18.996;2023-03-30T04:33:39;97800.46;;;4.72;61.48
77881;BME280;67077;50.298;18.996;2023-03-30T04:36:18;97800.39;;;4.77;61.56
77881;BME280;67077;50.298;18.996;2023-03-30T04:38:47;97797.61;;;4.83;61.38
77881;BME280;67077;50.298;18.996;2023-03-30T04:41:30;97792.83;;;4.87;61.34
77881;BME280;67077;50.298;18.996;2023-03-30T04:44:04;97792.52;;;4.89;61.35
77881;BME280;67077;50.298;18.996;2023-03-30T04:46:34;97784.98;;;4.91;61.41
77881;BME280;67077;50.298;18.996;2023-03-30T04:49:03;97784.16;;;4.92;61.44
77881;BME280;67077;50.298;18.996;2023-03-30T04:51:31;97779.80;;;4.92;61.60
77881;BME280;67077;50.298;18.996;2023-03-30T04:53:59;97778.58;;;4.93;61.67
77881;BME280;67077;50.298;18.996;2023-03-30T04:56:29;97774.13;;;4.95;61.55
77881;BME280;67077;50.298;18.996;2023-03-30T04:58:57;97771.79;;;4.95;61.72
77881;BME280;67077;50.298;18.996;2023-03-30T05:01:25;97767.17;;;4.96;61.84
77881;BME280;67077;50.298;18.996;2023-03-30T05:03:53;97762.45;;;4.98;61.78
77881;BME280;67077;50.298;18.996;2023-03-30T05:06:21;97761.39;;;4.99;62.01
77881;BME280;67077;50.298;18.996;2023-03-30T05:08:52;97761.73;;;5.01;61.92
77881;BME280;67077;50.298;18.996;2023-03-30T05:11:19;97763.81;;;5.03;61.92
77881;BME280;67077;50.298;18.996;2023-03-30T05:13:51;97766.46;;;5.04;62.11
77881;BME280;67077;50.298;18.996;2023-03-30T05:16:19;97764.77;;;5.07;62.14
77881;BME280;67077;50.298;18.996;2023-03-30T05:18:48;97762.95;;;5.09;62.08
77881;BME280;67077;50.298;18.996;2023-03-30T05:21:16;97766.17;;;5.13;62.15
77881;BME280;67077;50.298;18.996;2023-03-30T05:23:44;97763.73;;;5.16;62.02
77881;BME280;67077;50.298;18.996;2023-03-30T05:26:12;97761.70;;;5.24;62.01
77881;BME280;67077;50.298;18.996;2023-03-30T05:28:40;97757.73;;;5.32;61.88
77881;BME280;67077;50.298;18.996;2023-03-30T05:31:09;97753.55;;;5.37;61.68
77881;BME280;67077;50.298;18.996;2023-03-30T05:33:37;97752.63;;;5.44;61.80
77881;BME280;67077;50.298;18.996;2023-03-30T05:36:06;97751.70;;;5.48;61.59
77881;BME280;67077;50.298;18.996;2023-03-30T05:38:34;97750.20;;;5.51;61.57
77881;BME280;67077;50.298;18.996;2023-03-30T05:41:03;97748.22;;;5.54;61.57
77881;BME280;67077;50.298;18.996;2023-03-30T05:43:32;97746.33;;;5.57;61.56
77881;BME280;67077;50.298;18.996;2023-03-30T05:46:01;97739.14;;;5.62;61.37
77881;BME280;67077;50.298;18.996;2023-03-30T05:48:30;97729.39;;;5.67;61.26
77881;BME280;67077;50.298;18.996;2023-03-30T05:50:58;97725.81;;;5.72;61.26
77881;BME280;67077;50.298;18.996;2023-03-30T05:53:26;97725.65;;;5.81;60.97
77881;BME280;67077;50.298;18.996;2023-03-30T05:55:54;97725.63;;;5.89;61.06
77881;BME280;67077;50.298;18.996;2023-03-30T05:58:22;97721.36;;;5.97;60.89
77881;BME280;67077;50.298;18.996;2023-03-30T06:00:50;97722.48;;;6.07;60.73
77881;BME280;67077;50.298;18.996;2023-03-30T06:03:19;97718.74;;;6.13;60.42
77881;BME280;67077;50.298;18.996;2023-03-30T06:05:47;97709.90;;;6.19;60.31
77881;BME280;67077;50.298;18.996;2023-03-30T06:08:15;97712.84;;;6.26;60.21
77881;BME280;67077;50.298;18.996;2023-03-30T06:10:51;97716.73;;;6.32;60.21
77881;BME280;67077;50.298;18.996;2023-03-30T06:13:19;97720.86;;;6.37;59.96
77881;BME280;67077;50.298;18.996;2023-03-30T06:15:48;97717.56;;;6.41;59.83
77881;BME280;67077;50.298;18.996;2023-03-30T06:18:16;97716.11;;;6.46;59.41
77881;BME280;67077;50.298;18.996;2023-03-30T06:20:47;97720.99;;;6.52;59.27
77881;BME280;67077;50.298;18.996;2023-03-30T06:23:16;97718.95;;;6.59;59.35
77881;BME280;67077;50.298;18.996;2023-03-30T06:25:49;97716.57;;;6.68;58.82
77881;BME280;67077;50.298;18.996;2023-03-30T06:28:20;97716.26;;;6.74;58.68
77881;BME280;67077;50.298;18.996;2023-03-30T06:30:49;97720.98;;;6.83;58.35
77881;BME280;67077;50.298;18.996;2023-03-30T06:33:18;97719.92;;;6.94;58.10
77881;BME280;67077;50.298;18.996;2023-03-30T06:35:51;97720.80;;;7.03;57.86
77881;BME280;67077;50.298;18.996;2023-03-30T06:38:21;97716.80;;;7.10;57.81
77881;BME280;67077;50.298;18.996;2023-03-30T06:40:49;97718.69;;;7.16;57.35
77881;BME280;67077;50.298;18.996;2023-03-30T06:43:20;97713.29;;;7.20;57.22
77881;BME280;67077;50.298;18.996;2023-03-30T06:45:53;97710.73;;;7.24;56.70
77881;BME280;67077;50.298;18.996;2023-03-30T06:48:22;97703.65;;;7.27;56.41
77881;BME280;67077;50.298;18.996;2023-03-30T06:50:51;97697.56;;;7.29;56.28
77881;BME280;67077;50.298;18.996;2023-03-30T06:53:22;97693.34;;;7.34;56.30
77881;BME280;67077;50.298;18.996;2023-03-30T06:55:55;97697.52;;;7.41;56.30
77881;BME280;67077;50.298;18.996;2023-03-30T06:58:25;97695.73;;;7.49;56.02
77881;BME280;67077;50.298;18.996;2023-03-30T07:00:54;97700.89;;;7.58;55.89
77881;BME280;67077;50.298;18.996;2023-03-30T07:03:24;97702.19;;;7.63;55.63
77881;BME280;67077;50.298;18.996;2023-03-30T07:05:53;97702.63;;;7.67;55.57
77881;BME280;67077;50.298;18.996;2023-03-30T07:08:22;97706.53;;;7.71;55.85
77881;BME280;67077;50.298;18.996;2023-03-30T07:10:51;97705.33;;;7.74;55.50
77881;BME280;67077;50.298;18.996;2023-03-30T07:13:19;97705.81;;;7.75;55.32
77881;BME280;67077;50.298;18.996;2023-03-30T07:15:48;97704.70;;;7.75;55.43
77881;BME280;67077;50.298;18.996;2023-03-30T07:18:15;97698.77;;;7.76;55.50
77881;BME280;67077;50.298;18.996;2023-03-30T07:20:45;97689.58;;;7.79;55.53
77881;BME280;67077;50.298;18.996;2023-03-30T07:23:14;97681.95;;;7.87;55.61
77881;BME280;67077;50.298;18.996;2023-03-30T07:25:54;97678.23;;;7.98;55.45
77881;BME280;67077;50.298;18.996;2023-03-30T07:28:23;97684.11;;;8.08;55.18
77881;BME280;67077;50.298;18.996;2023-03-30T07:30:51;97680.79;;;8.19;54.71
77881;BME280;67077;50.298;18.996;2023-03-30T07:33:19;97682.13;;;8.27;54.51
77881;BME280;67077;50.298;18.996;2023-03-30T07:35:49;97681.18;;;8.38;54.56
77881;BME280;67077;50.298;18.996;2023-03-30T07:38:17;97678.19;;;8.50;54.04
77881;BME280;67077;50.298;18.996;2023-03-30T07:40:45;97679.45;;;8.62;54.19
77881;BME280;67077;50.298;18.996;2023-03-30T07:43:13;97680.24;;;8.81;53.54
77881;BME280;67077;50.298;18.996;2023-03-30T07:45:42;97675.08;;;8.95;52.98
77881;BME280;67077;50.298;18.996;2023-03-30T07:48:10;97664.67;;;9.06;52.90
77881;BME280;67077;50.298;18.996;2023-03-30T07:50:38;97664.16;;;9.18;52.58
77881;BME280;67077;50.298;18.996;2023-03-30T07:53:06;97676.81;;;9.32;52.22
77881;BME280;67077;50.298;18.996;2023-03-30T07:55:34;97675.05;;;9.46;51.82
77881;BME280;67077;50.298;18.996;2023-03-30T07:58:02;97676.01;;;9.52;51.37
77881;BME280;67077;50.298;18.996;2023-03-30T08:00:31;97675.27;;;9.63;51.43
77881;BME280;67077;50.298;18.996;2023-03-30T08:02:59;97676.68;;;9.71;50.72
77881;BME280;67077;50.298;18.996;2023-03-30T08:05:27;97672.07;;;9.83;50.80
77881;BME280;67077;50.298;18.996;2023-03-30T08:07:57;97671.05;;;9.97;49.85
77881;BME280;67077;50.298;18.996;2023-03-30T08:10:25;97663.42;;;10.03;49.65
77881;BME280;67077;50.298;18.996;2023-03-30T08:13:19;97665.04;;;10.12;49.52
77881;BME280;67077;50.298;18.996;2023-03-30T08:15:51;97667.72;;;10.24;49.62
77881;BME280;67077;50.298;18.996;2023-03-30T08:18:21;97668.23;;;10.32;49.10
77881;BME280;67077;50.298;18.996;2023-03-30T08:20:50;97663.95;;;10.45;49.24
77881;BME280;67077;50.298;18.996;2023-03-30T08:23:20;97656.27;;;10.63;49.03
77881;BME280;67077;50.298;18.996;2023-03-30T08:25:49;97650.74;;;10.79;48.96
77881;BME280;67077;50.298;18.996;2023-03-30T08:28:20;97652.35;;;10.94;48.53
77881;BME280;67077;50.298;18.996;2023-03-30T08:31:09;97653.29;;;11.07;48.47
77881;BME280;67077;50.298;18.996;2023-03-30T08:33:40;97646.27;;;11.20;47.96
77881;BME280;67077;50.298;18.996;2023-03-30T08:36:10;97642.02;;;11.27;47.70
77881;BME280;67077;50.298;18.996;2023-03-30T08:38:42;97640.88;;;11.33;47.67
77881;BME280;67077;50.298;18.996;2023-03-30T08:43:57;97634.85;;;11.63;48.00
77881;BME280;67077;50.298;18.996;2023-03-30T08:46:28;97624.75;;;11.74;47.66
77881;BME280;67077;50.298;18.996;2023-03-30T08:49:00;97621.35;;;11.80;47.34
77881;BME280;67077;50.298;18.996;2023-03-30T08:51:32;97614.48;;;11.88;47.41
77881;BME280;67077;50.298;18.996;2023-03-30T08:54:05;97613.13;;;11.93;47.30
77881;BME280;67077;50.298;18.996;2023-03-30T09:02:18;97600.74;;;12.10;47.00
77881;BME280;67077;50.298;18.996;2023-03-30T09:05:05;97596.90;;;12.06;47.13
77881;BME280;67077;50.298;18.996;2023-03-30T09:07:48;97590.44;;;12.03;47.29
77881;BME280;67077;50.298;18.996;2023-03-30T09:10:22;97599.44;;;12.06;47.57
77881;BME280;67077;50.298;18.996;2023-03-30T09:13:08;97594.97;;;12.15;47.46
77881;BME280;67077;50.298;18.996;2023-03-30T09:18:36;97586.67;;;12.32;46.96
77881;BME280;67077;50.298;18.996;2023-03-30T09:21:10;97582.88;;;12.34;46.93
77881;BME280;67077;50.298;18.996;2023-03-30T09:23:42;97580.59;;;12.40;46.90
77881;BME280;67077;50.298;18.996;2023-03-30T09:32:02;97558.10;;;12.52;47.00
77881;BME280;67077;50.298;18.996;2023-03-30T09:37:14;97545.48;;;12.72;47.17
77881;BME280;67077;50.298;18.996;2023-03-30T09:45:34;97533.39;;;12.93;46.18
77881;BME280;67077;50.298;18.996;2023-03-30T09:48:05;97523.11;;;12.90;46.15
77881;BME280;67077;50.298;18.996;2023-03-30T09:50:39;97519.99;;;12.93;46.42
77881;BME280;67077;50.298;18.996;2023-03-30T09:53:22;97518.34;;;13.02;46.37
77881;BME280;67077;50.298;18.996;2023-03-30T09:56:20;97523.52;;;13.12;46.36
77881;BME280;67077;50.298;18.996;2023-03-30T09:58:49;97527.19;;;13.19;46.16
77881;BME280;67077;50.298;18.996;2023-03-30T10:01:19;97525.69;;;13.28;46.15
77881;BME280;67077;50.298;18.996;2023-03-30T10:04:06;97530.88;;;13.37;45.81
77881;BME280;67077;50.298;18.996;2023-03-30T10:06:45;97517.58;;;13.36;45.75
77881;BME280;67077;50.298;18.996;2023-03-30T10:09:16;97517.55;;;13.39;45.98
77881;BME280;67077;50.298;18.996;2023-03-30T10:11:49;97515.27;;;13.48;45.98
77881;BME280;67077;50.298;18.996;2023-03-30T10:16:57;97500.45;;;13.79;45.91
77881;BME280;67077;50.298;18.996;2023-03-30T10:19:28;97491.91;;;13.93;45.49
77881;BME280;67077;50.298;18.996;2023-03-30T10:21:59;97487.95;;;14.02;45.23
77881;BME280;67077;50.298;18.996;2023-03-30T10:24:32;97494.15;;;14.09;45.13
77881;BME280;67077;50.298;18.996;2023-03-30T10:27:13;97490.66;;;14.11;44.84
77881;BME280;67077;50.298;18.996;2023-03-30T10:29:47;97489.64;;;14.09;45.04
77881;BME280;67077;50.298;18.996;2023-03-30T10:32:25;97482.20;;;14.13;45.19
77881;BME280;67077;50.298;18.996;2023-03-30T10:34:56;97470.36;;;14.27;45.31
77881;BME280;67077;50.298;18.996;2023-03-30T10:37:34;97466.80;;;14.41;45.08
77881;BME280;67077;50.298;18.996;2023-03-30T10:40:30;97463.36;;;14.51;44.84
77881;BME280;67077;50.298;18.996;2023-03-30T10:43:02;97450.86;;;14.51;44.40
77881;BME280;67077;50.298;18.996;2023-03-30T10:45:39;97450.45;;;14.48;44.86
77881;BME280;67077;50.298;18.996;2023-03-30T10:51:33;97449.23;;;14.66;44.96
77881;BME280;67077;50.298;18.996;2023-03-30T10:56:44;97436.13;;;14.69;44.19
77881;BME280;67077;50.298;18.996;2023-03-30T11:07:40;97423.42;;;14.37;44.41
77881;BME280;67077;50.298;18.996;2023-03-30T11:10:30;97423.31;;;14.20;44.79
77881;BME280;67077;50.298;18.996;2023-03-30T11:16:05;97429.73;;;14.32;45.10
77881;BME280;67077;50.298;18.996;2023-03-30T11:24:26;97427.35;;;14.40;44.69
77881;BME280;67077;50.298;18.996;2023-03-30T11:26:58;97427.66;;;14.42;45.06
77881;BME280;67077;50.298;18.996;2023-03-30T11:35:46;97399.71;;;14.48;45.72
77881;BME280;67077;50.298;18.996;2023-03-30T11:38:57;97395.74;;;14.38;45.86
77881;BME280;67077;50.298;18.996;2023-03-30T11:41:41;97389.48;;;14.28;46.15
77881;BME280;67077;50.298;18.996;2023-03-30T11:44:12;97387.70;;;14.28;46.47
77881;BME280;67077;50.298;18.996;2023-03-30T11:47:40;97386.14;;;14.34;46.57
77881;BME280;67077;50.298;18.996;2023-03-30T11:55:55;97366.80;;;14.84;46.09
77881;BME280;67077;50.298;18.996;2023-03-30T11:58:46;97362.40;;;14.90;46.00
77881;BME280;67077;50.298;18.996;2023-03-30T12:04:15;97355.50;;;15.04;45.73
77881;BME280;67077;50.298;18.996;2023-03-30T12:06:59;97360.98;;;15.04;45.93
77881;BME280;67077;50.298;18.996;2023-03-30T12:09:41;97358.77;;;15.07;45.89
77881;BME280;67077;50.298;18.996;2023-03-30T12:12:16;97359.55;;;15.14;45.98
77881;BME280;67077;50.298;18.996;2023-03-30T12:17:38;97361.61;;;15.14;45.66
77881;BME280;67077;50.298;18.996;2023-03-30T12:22:42;97367.10;;;15.08;45.85
77881;BME280;67077;50.298;18.996;2023-03-30T12:25:26;97367.27;;;15.08;46.08
77881;BME280;67077;50.298;18.996;2023-03-30T12:30:42;97369.99;;;15.13;46.15
77881;BME280;67077;50.298;18.996;2023-03-30T12:33:16;97368.10;;;15.03;45.91
77881;BME280;67077;50.298;18.996;2023-03-30T12:38:18;97366.20;;;14.72;46.50
77881;BME280;67077;50.298;18.996;2023-03-30T12:41:01;97372.21;;;14.58;46.74
77881;BME280;67077;50.298;18.996;2023-03-30T12:46:20;97377.89;;;14.27;47.22
77881;BME280;67077;50.298;18.996;2023-03-30T13:01:25;97370.70;;;13.62;49.02
77881;BME280;67077;50.298;18.996;2023-03-30T13:03:37;97370.61;;;13.57;49.23
77881;BME280;67077;50.298;18.996;2023-03-30T13:06:21;97363.64;;;13.54;49.47
77881;BME280;67077;50.298;18.996;2023-03-30T13:09:27;97365.02;;;13.53;49.62
77881;BME280;67077;50.298;18.996;2023-03-30T13:19:46;97369.04;;;13.51;50.14
77881;BME280;67077;50.298;18.996;2023-03-30T13:24:45;97379.92;;;13.45;50.60
77881;BME280;67077;50.298;18.996;2023-03-30T13:35:25;97378.52;;;13.35;51.26
77881;BME280;67077;50.298;18.996;2023-03-30T13:43:14;97395.44;;;13.11;52.41
77881;BME280;67077;50.298;18.996;2023-03-30T13:45:55;97394.77;;;13.04;53.15
77881;BME280;67077;50.298;18.996;2023-03-30T13:51:03;97395.39;;;12.89;54.20
77881;BME280;67077;50.298;18.996;2023-03-30T13:53:46;97397.29;;;12.82;54.54
77881;BME280;67077;50.298;18.996;2023-03-30T13:56:16;97395.36;;;12.72;54.90
77881;BME280;67077;50.298;18.996;2023-03-30T13:58:52;97394.92;;;12.65;55.07
77881;BME280;67077;50.298;18.996;2023-03-30T14:01:23;97394.90;;;12.58;55.31
77881;BME280;67077;50.298;18.996;2023-03-30T14:03:55;97397.45;;;12.55;55.32
77881;BME280;67077;50.298;18.996;2023-03-30T14:06:24;97397.35;;;12.52;55.19
77881;BME280;67077;50.298;18.996;2023-03-30T14:11:41;97396.08;;;12.50;55.15
77881;BME280;67077;50.298;18.996;2023-03-30T14:14:15;97395.32;;;12.51;55.11
77881;BME280;67077;50.298;18.996;2023-03-30T14:16:45;97388.33;;;12.51;55.12
77881;BME280;67077;50.298;18.996;2023-03-30T14:19:20;97389.21;;;12.53;55.21
77881;BME280;67077;50.298;18.996;2023-03-30T14:21:54;97387.86;;;12.53;55.44
77881;BME280;67077;50.298;18.996;2023-03-30T14:24:31;97391.77;;;12.54;55.52
77881;BME280;67077;50.298;18.996;2023-03-30T14:29:32;97384.12;;;12.59;55.66
77881;BME280;67077;50.298;18.996;2023-03-30T14:32:01;97382.23;;;12.56;55.92
77881;BME280;67077;50.298;18.996;2023-03-30T14:34:32;97379.57;;;12.53;56.11
77881;BME280;67077;50.298;18.996;2023-03-30T14:37:04;97376.54;;;12.49;56.68
77881;BME280;67077;50.298;18.996;2023-03-30T14:39:39;97376.23;;;12.46;57.23
77881;BME280;67077;50.298;18.996;2023-03-30T14:42:31;97371.20;;;12.39;57.95
77881;BME280;67077;50.298;18.996;2023-03-30T14:45:06;97370.77;;;12.26;58.72
77881;BME280;67077;50.298;18.996;2023-03-30T14:47:35;97370.85;;;12.15;59.70
77881;BME280;67077;50.298;18.996;2023-03-30T14:50:06;97369.14;;;12.03;60.35
77881;BME280;67077;50.298;18.996;2023-03-30T14:52:39;97369.98;;;11.91;61.01
77881;BME280;67077;50.298;18.996;2023-03-30T14:55:23;97361.40;;;11.78;61.89
77881;BME280;67077;50.298;18.996;2023-03-30T14:57:52;97360.60;;;11.67;62.36
77881;BME280;67077;50.298;18.996;2023-03-30T15:00:22;97364.49;;;11.62;62.67
77881;BME280;67077;50.298;18.996;2023-03-30T15:02:57;97361.98;;;11.60;63.10
77881;BME280;67077;50.298;18.996;2023-03-30T15:05:33;97354.65;;;11.56;63.75
77881;BME280;67077;50.298;18.996;2023-03-30T15:08:15;97352.70;;;11.47;64.21
77881;BME280;67077;50.298;18.996;2023-03-30T15:10:57;97346.17;;;11.39;64.53
77881;BME280;67077;50.298;18.996;2023-03-30T15:13:35;97347.55;;;11.32;64.78
77881;BME280;67077;50.298;18.996;2023-03-30T15:16:04;97342.28;;;11.28;65.24
77881;BME280;67077;50.298;18.996;2023-03-30T15:18:34;97345.33;;;11.22;65.57
77881;BME280;67077;50.298;18.996;2023-03-30T15:21:03;97344.70;;;11.18;65.82
77881;BME280;67077;50.298;18.996;2023-03-30T15:23:35;97339.49;;;11.13;66.24
77881;BME280;67077;50.298;18.996;2023-03-30T15:26:05;97346.30;;;11.03;66.85
77881;BME280;67077;50.298;18.996;2023-03-30T15:28:44;97342.42;;;10.96;67.14
77881;BME280;67077;50.298;18.996;2023-03-30T15:31:14;97342.34;;;10.92;67.47
77881;BME280;67077;50.298;18.996;2023-03-30T15:33:48;97336.48;;;10.88;67.85
77881;BME280;67077;50.298;18.996;2023-03-30T15:36:23;97329.32;;;10.80;68.40
77881;BME280;67077;50.298;18.996;2023-03-30T15:38:54;97331.50;;;10.72;68.54
77881;BME280;67077;50.298;18.996;2023-03-30T15:42:02;97325.70;;;10.64;69.19
77881;BME280;67077;50.298;18.996;2023-03-30T15:44:36;97320.55;;;10.54;69.52
77881;BME280;67077;50.298;18.996;2023-03-30T15:47:12;97317.89;;;10.48;69.94
77881;BME280;67077;50.298;18.996;2023-03-30T15:49:50;97320.13;;;10.39;70.44
77881;BME280;67077;50.298;18.996;2023-03-30T15:52:28;97316.84;;;10.29;70.90
77881;BME280;67077;50.298;18.996;2023-03-30T15:55:07;97316.85;;;10.17;71.26
77881;BME280;67077;50.298;18.996;2023-03-30T15:57:41;97316.14;;;10.10;71.69
77881;BME280;67077;50.298;18.996;2023-03-30T16:00:15;97315.17;;;10.06;71.63
77881;BME280;67077;50.298;18.996;2023-03-30T16:02:49;97314.97;;;10.01;71.88
77881;BME280;67077;50.298;18.996;2023-03-30T16:05:31;97310.95;;;9.93;72.24
77881;BME280;67077;50.298;18.996;2023-03-30T16:08:04;97307.88;;;9.84;72.58
77881;BME280;67077;50.298;18.996;2023-03-30T16:10:32;97306.23;;;9.79;72.62
77881;BME280;67077;50.298;18.996;2023-03-30T16:13:01;97303.66;;;9.75;72.90
77881;BME280;67077;50.298;18.996;2023-03-30T16:15:32;97306.77;;;9.70;72.94
77881;BME280;67077;50.298;18.996;2023-03-30T16:18:01;97302.02;;;9.64;73.30